Time;durP1;ratioP1;P1;durP2;ratioP2;P2;SDS_P1;SDS_P2;PMS_P1;PMS_P2;Temp;Humidity;BMP_temperature;BMP_pressure;BME280_temperature;BME280_humidity;BME280_pressure;Samples;Min_cycle;Max_cycle;Signal;HPM_P1;HPM_P2
2023/09/12 00:02:17;;;;;;;6.63;6.03;;;27.80;57.70;;;;;;5034701;28;20048;-64
2023/09/12 00:04:43;;;;;;;6.30;5.70;;;27.80;57.70;;;;;;5035576;28;20028;-65
2023/09/12 00:07:09;;;;;;;6.47;5.80;;;27.80;57.70;;;;;;5034467;28;20080;-64
2023/09/12 00:09:38;;;;;;;7.00;6.30;;;27.70;57.70;;;;;;5030265;28;20037;-67
2023/09/12 00:12:05;;;;;;;7.05;5.68;;;27.70;57.70;;;;;;5013789;28;20555;-65
2023/09/12 00:14:31;;;;;;;6.22;5.57;;;27.70;57.70;;;;;;5016987;28;20465;-66
2023/09/12 00:16:56;;;;;;;6.40;5.80;;;27.70;57.70;;;;;;5028311;28;20060;-65
2023/09/12 00:19:22;;;;;;;6.47;5.75;;;27.70;57.70;;;;;;5030670;28;20303;-66
2023/09/12 00:21:48;;;;;;;6.95;6.15;;;27.70;57.70;;;;;;5031547;28;20037;-65
2023/09/12 00:24:14;;;;;;;6.72;5.85;;;27.70;57.70;;;;;;5031284;28;20073;-65
2023/09/12 00:26:40;;;;;;;7.47;6.22;;;27.70;57.70;;;;;;5030614;28;20034;-66
2023/09/12 00:29:06;;;;;;;6.43;5.82;;;27.70;57.70;;;;;;5032325;28;20083;-65
2023/09/12 00:31:32;;;;;;;6.30;5.70;;;27.70;57.70;;;;;;5033676;28;20025;-64
2023/09/12 00:33:58;;;;;;;6.45;5.75;;;27.70;57.70;;;;;;5013456;28;20060;-66
2023/09/12 00:36:23;;;;;;;6.03;5.43;;;27.70;57.70;;;;;;5029724;28;20036;-64
2023/09/12 00:38:49;;;;;;;6.68;5.88;;;27.70;57.60;;;;;;5032243;28;20379;-64
2023/09/12 00:41:15;;;;;;;6.93;6.22;;;27.70;57.60;;;;;;5011163;28;20051;-66
2023/09/12 00:43:41;;;;;;;7.50;6.35;;;27.70;57.70;;;;;;5016156;28;20056;-65
2023/09/12 00:46:07;;;;;;;6.00;5.40;;;27.70;57.70;;;;;;5017803;28;20028;-65
2023/09/12 00:48:34;;;;;;;6.55;5.78;;;27.70;57.70;;;;;;5032413;28;20043;-66
2023/09/12 00:51:00;;;;;;;6.22;5.63;;;27.70;57.70;;;;;;5013470;28;20044;-64
2023/09/12 00:53:27;;;;;;;6.43;5.82;;;27.70;57.70;;;;;;5017185;28;20087;-66
2023/09/12 00:55:57;;;;;;;6.70;6.00;;;27.70;57.70;;;;;;5031655;28;20110;-66
2023/09/12 00:58:25;;;;;;;6.10;5.32;;;27.60;57.70;;;;;;5008261;28;20408;-65
2023/09/12 01:00:51;;;;;;;7.15;6.22;;;27.60;57.70;;;;;;5030957;28;20434;-66
2023/09/12 01:03:17;;;;;;;6.72;5.85;;;27.60;57.70;;;;;;5031854;28;20290;-66
2023/09/12 01:05:44;;;;;;;7.28;5.43;;;27.70;57.70;;;;;;5014319;28;20139;-66
2023/09/12 01:08:11;;;;;;;5.88;5.28;;;27.60;57.60;;;;;;5015682;28;20049;-65
2023/09/12 01:10:37;;;;;;;7.30;6.20;;;27.60;58.30;;;;;;5030760;28;20026;-66
2023/09/12 01:13:03;;;;;;;6.25;5.65;;;27.60;57.60;;;;;;5030276;28;20041;-65
2023/09/12 01:15:29;;;;;;;6.45;5.85;;;27.60;57.60;;;;;;5039173;28;20108;-65
2023/09/12 01:17:57;;;;;;;6.80;5.78;;;27.60;57.60;;;;;;5009529;28;20033;-65
2023/09/12 01:20:28;;;;;;;6.53;5.63;;;27.60;57.60;;;;;;5021695;28;20034;-63
2023/09/12 01:23:17;;;;;;;6.63;5.93;;;27.60;57.60;;;;;;5016126;28;20442;-65
2023/09/12 01:25:55;;;;;;;6.65;5.95;;;27.60;57.60;;;;;;5031476;28;20038;-65
2023/09/12 01:28:25;;;;;;;6.80;6.10;;;27.60;57.60;;;;;;5015156;28;20033;-64
2023/09/12 01:30:52;;;;;;;7.43;5.68;;;27.60;57.50;;;;;;5029949;28;20021;-63
2023/09/12 01:33:18;;;;;;;6.10;5.40;;;27.50;57.50;;;;;;5011057;28;20030;-64
2023/09/12 01:35:46;;;;;;;6.97;6.30;;;27.60;57.60;;;;;;5044199;28;20089;-66
2023/09/12 01:38:13;;;;;;;6.50;5.57;;;27.50;57.50;;;;;;5028216;28;20138;-66
2023/09/12 01:40:48;;;;;;;6.55;5.85;;;27.50;57.50;;;;;;5031118;28;20060;-65
2023/09/12 01:43:16;;;;;;;6.95;5.88;;;27.50;57.40;;;;;;5031574;28;20128;-65
2023/09/12 01:45:43;;;;;;;6.72;5.30;;;27.60;57.50;;;;;;5008920;28;20300;-66
2023/09/12 01:48:12;;;;;;;6.50;5.47;;;27.50;57.40;;;;;;5025000;28;20049;-65
2023/09/12 01:50:38;;;;;;;5.90;5.30;;;27.60;57.40;;;;;;5031433;28;20084;-64
2023/09/12 01:53:05;;;;;;;5.88;5.28;;;27.50;57.40;;;;;;5023001;28;20048;-64
2023/09/12 01:55:31;;;;;;;5.90;5.40;;;27.50;57.40;;;;;;5028083;28;20461;-67
2023/09/12 01:57:58;;;;;;;6.47;5.88;;;27.50;57.30;;;;;;5028791;28;20051;-65
2023/09/12 02:00:24;;;;;;;6.38;5.30;;;27.50;57.30;;;;;;5009115;28;20102;-65
2023/09/12 02:02:50;;;;;;;6.03;5.43;;;27.50;57.30;;;;;;5029914;28;20021;-65
2023/09/12 02:05:18;;;;;;;6.47;5.78;;;27.50;57.30;;;;;;5028303;28;20026;-65
2023/09/12 02:07:45;;;;;;;5.65;5.00;;;27.50;57.20;;;;;;5030445;28;20179;-66
2023/09/12 02:10:12;;;;;;;6.30;5.65;;;27.50;57.20;;;;;;5009270;28;20036;-66
2023/09/12 02:12:38;;;;;;;6.20;5.47;;;27.50;57.20;;;;;;5031365;28;20036;-63
2023/09/12 02:15:07;;;;;;;6.40;5.35;;;27.50;57.20;;;;;;5012723;28;20039;-65
2023/09/12 02:17:33;;;;;;;5.68;5.10;;;27.50;57.20;;;;;;5005384;28;20018;-64
2023/09/12 02:19:58;;;;;;;6.00;5.15;;;27.50;57.20;;;;;;5032836;28;20037;-66
2023/09/12 02:22:24;;;;;;;6.43;5.70;;;27.50;57.10;;;;;;5010210;28;20159;-64
2023/09/12 02:24:51;;;;;;;7.07;5.18;;;27.50;57.10;;;;;;5007542;28;20474;-64
2023/09/12 02:27:17;;;;;;;5.75;5.00;;;27.50;57.10;;;;;;5029918;28;20073;-66
2023/09/12 02:29:44;;;;;;;5.47;4.97;;;27.50;57.10;;;;;;5011052;28;20417;-64
2023/09/12 02:32:09;;;;;;;5.88;5.15;;;27.40;57.00;;;;;;5031167;28;20087;-64
2023/09/12 02:34:35;;;;;;;6.80;5.10;;;27.50;57.00;;;;;;5011911;28;20025;-65
2023/09/12 02:37:01;;;;;;;6.97;5.20;;;27.50;57.00;;;;;;5028922;28;20416;-65
2023/09/12 02:39:27;;;;;;;6.25;5.03;;;27.50;57.00;;;;;;5041934;28;20120;-64
2023/09/12 02:41:53;;;;;;;6.65;5.47;;;27.40;56.90;;;;;;5015132;28;20025;-64
2023/09/12 02:44:19;;;;;;;5.55;4.85;;;27.40;56.90;;;;;;5032165;28;20128;-66
2023/09/12 02:46:46;;;;;;;6.18;5.28;;;27.40;56.90;;;;;;5026388;28;20030;-64
2023/09/12 02:49:12;;;;;;;5.10;4.65;;;27.40;56.90;;;;;;5023640;28;20141;-65
2023/09/12 02:51:41;;;;;;;5.97;5.38;;;27.40;56.90;;;;;;5009602;28;20426;-66
2023/09/12 02:54:07;;;;;;;5.85;4.93;;;27.40;56.80;;;;;;5011535;28;20028;-65
2023/09/12 02:56:33;;;;;;;6.57;5.55;;;27.50;56.90;;;;;;5014060;28;20087;-65
2023/09/12 02:58:59;;;;;;;6.72;5.50;;;27.40;56.80;;;;;;5012335;28;20041;-64
2023/09/12 03:01:27;;;;;;;6.05;5.25;;;27.40;56.80;;;;;;5027630;28;20041;-66
2023/09/12 03:03:54;;;;;;;6.13;5.57;;;27.40;56.80;;;;;;5000860;28;20414;-66
2023/09/12 03:06:20;;;;;;;5.97;5.38;;;27.40;56.80;;;;;;5008641;28;20026;-66
2023/09/12 03:08:47;;;;;;;5.78;5.28;;;27.40;56.90;;;;;;5011171;28;20032;-64
2023/09/12 03:11:13;;;;;;;7.88;5.95;;;27.40;56.90;;;;;;5010245;28;20471;-64
2023/09/12 03:13:41;;;;;;;5.70;5.20;;;27.40;56.90;;;;;;5007955;28;20385;-65
2023/09/12 03:16:13;;;;;;;6.70;5.30;;;27.40;56.90;;;;;;5030670;28;20113;-65
2023/09/12 03:18:40;;;;;;;6.50;5.53;;;27.30;56.90;;;;;;5009691;28;20204;-66
2023/09/12 03:21:06;;;;;;;6.07;5.03;;;27.40;56.90;;;;;;5002389;28;20026;-66
2023/09/12 03:23:32;;;;;;;5.10;4.60;;;27.30;56.90;;;;;;5007715;28;20356;-64
2023/09/12 03:26:07;;;;;;;6.15;4.88;;;27.30;56.90;;;;;;5011234;28;21559;-66
2023/09/12 03:28:34;;;;;;;5.95;5.38;;;27.40;57.00;;;;;;5006213;28;20040;-67
2023/09/12 03:31:12;;;;;;;5.40;4.55;;;27.30;56.90;;;;;;5014420;28;20053;-65
2023/09/12 03:33:39;;;;;;;5.93;4.85;;;27.40;57.00;;;;;;5036269;28;20045;-67
2023/09/12 03:36:06;;;;;;;5.30;4.78;;;27.30;56.90;;;;;;5010797;28;20033;-64
2023/09/12 03:38:34;;;;;;;6.05;4.97;;;27.30;56.90;;;;;;5013808;28;20547;-65
2023/09/12 03:41:00;;;;;;;7.82;5.20;;;27.30;56.90;;;;;;5013842;28;20083;-66
2023/09/12 03:43:26;;;;;;;5.40;4.90;;;27.30;56.90;;;;;;4997081;28;20120;-65
2023/09/12 03:45:53;;;;;;;5.18;4.68;;;27.30;56.80;;;;;;5029851;28;20053;-65
2023/09/12 03:48:20;;;;;;;5.28;4.78;;;27.30;56.80;;;;;;4994305;28;20152;-66
2023/09/12 03:50:46;;;;;;;6.22;4.72;;;27.30;56.80;;;;;;4994750;28;20109;-64
2023/09/12 03:53:13;;;;;;;6.28;4.63;;;27.30;56.80;;;;;;4986493;28;20030;-64
2023/09/12 03:55:39;;;;;;;5.43;4.93;;;27.30;56.80;;;;;;4997258;28;20027;-64
2023/09/12 03:58:05;;;;;;;5.60;5.07;;;27.30;56.70;;;;;;5018962;28;20049;-65
2023/09/12 04:00:31;;;;;;;5.10;4.55;;;27.30;56.70;;;;;;5007264;28;20097;-65
2023/09/12 04:02:57;;;;;;;4.63;4.22;;;27.30;56.70;;;;;;5006318;28;20034;-64
2023/09/12 04:05:24;;;;;;;5.18;4.68;;;27.30;56.70;;;;;;4993073;28;20038;-64
2023/09/12 04:07:51;;;;;;;5.28;4.40;;;27.20;56.70;;;;;;5004027;28;20027;-65
2023/09/12 04:10:21;;;;;;;5.10;4.60;;;27.20;56.70;;;;;;5018528;28;20092;-66
2023/09/12 04:12:46;;;;;;;5.40;4.57;;;27.20;56.70;;;;;;5009604;28;20133;-66
2023/09/12 04:15:13;;;;;;;7.15;4.72;;;27.20;56.70;;;;;;4993475;28;20067;-66
2023/09/12 04:17:39;;;;;;;4.53;4.07;;;27.20;56.70;;;;;;4999399;28;20042;-65
2023/09/12 04:20:05;;;;;;;4.78;4.38;;;27.20;56.70;;;;;;4988159;28;20062;-66
2023/09/12 04:22:32;;;;;;;5.45;4.90;;;27.20;56.70;;;;;;4993201;28;20053;-66
2023/09/12 04:24:58;;;;;;;5.38;4.80;;;27.20;56.70;;;;;;5015895;28;20030;-65
2023/09/12 04:27:24;;;;;;;6.13;5.10;;;27.20;56.70;;;;;;4997006;28;20023;-66
2023/09/12 04:29:51;;;;;;;5.07;4.57;;;27.20;56.70;;;;;;4988156;28;20030;-66
2023/09/12 04:32:23;;;;;;;5.85;5.25;;;27.20;56.70;;;;;;4979461;28;20467;-64
2023/09/12 04:34:49;;;;;;;6.25;5.45;;;27.20;56.80;;;;;;4991936;28;20053;-64
2023/09/12 04:37:16;;;;;;;5.65;4.72;;;27.20;56.80;;;;;;4991821;28;20026;-65
2023/09/12 04:39:42;;;;;;;5.90;5.30;;;27.20;56.80;;;;;;4995888;28;20121;-65
2023/09/12 04:42:08;;;;;;;6.03;5.43;;;27.20;56.80;;;;;;4997259;28;20117;-65
2023/09/12 04:44:41;;;;;;;6.60;5.90;;;27.20;56.80;;;;;;4994413;28;20051;-64
2023/09/12 04:47:08;;;;;;;6.60;5.90;;;27.20;56.90;;;;;;5006729;28;20042;-65
2023/09/12 04:49:34;;;;;;;6.20;5.30;;;27.20;56.90;;;;;;5004615;28;20483;-64
2023/09/12 04:52:00;;;;;;;7.40;6.10;;;27.20;57.00;;;;;;5029157;28;20056;-64
2023/09/12 04:54:25;;;;;;;6.55;5.95;;;27.20;57.00;;;;;;5027257;28;20033;-66
2023/09/12 04:56:51;;;;;;;6.97;6.28;;;27.20;57.10;;;;;;5016419;28;20029;-66
2023/09/12 04:59:17;;;;;;;7.03;6.32;;;27.20;57.10;;;;;;5008883;28;20532;-64
2023/09/12 05:01:43;;;;;;;7.03;5.82;;;27.20;57.20;;;;;;5012064;28;20149;-65
2023/09/12 05:04:09;;;;;;;6.53;5.82;;;27.20;57.20;;;;;;4991961;28;20414;-65
2023/09/12 05:06:36;;;;;;;6.95;6.25;;;27.10;57.20;;;;;;5019343;28;20434;-65
2023/09/12 05:09:03;;;;;;;6.45;5.85;;;27.20;57.30;;;;;;5009779;28;20035;-65
2023/09/12 05:11:29;;;;;;;7.68;6.75;;;27.20;57.40;;;;;;5029985;28;20059;-67
2023/09/12 05:13:55;;;;;;;7.07;6.38;;;27.20;57.40;;;;;;5008682;28;20021;-64
2023/09/12 05:16:21;;;;;;;7.85;7.07;;;27.20;57.50;;;;;;5008188;28;20088;-66
2023/09/12 05:18:49;;;;;;;7.45;6.65;;;27.10;57.50;;;;;;5038878;28;20137;-66
2023/09/12 05:21:16;;;;;;;8.25;7.10;;;27.10;57.50;;;;;;5041914;28;20029;-68
2023/09/12 05:23:41;;;;;;;8.05;7.28;;;27.10;57.60;;;;;;5005078;28;20125;-68
2023/09/12 05:26:07;;;;;;;7.70;7.00;;;27.20;57.70;;;;;;5004503;28;20121;-67
2023/09/12 05:28:34;;;;;;;7.30;6.60;;;27.10;57.70;;;;;;5026977;28;20107;-66
2023/09/12 05:31:00;;;;;;;8.07;7.28;;;27.20;57.70;;;;;;5009185;28;20033;-66
2023/09/12 05:33:26;;;;;;;8.45;7.55;;;27.20;57.80;;;;;;5010409;28;20080;-65
2023/09/12 05:35:53;;;;;;;8.43;7.45;;;27.10;57.70;;;;;;5012724;28;20022;-66
2023/09/12 05:38:19;;;;;;;8.82;7.68;;;27.10;57.80;;;;;;5033131;28;20143;-65
2023/09/12 05:40:45;;;;;;;9.50;8.20;;;27.10;57.90;;;;;;5009636;28;20031;-67
2023/09/12 05:43:10;;;;;;;8.38;7.57;;;27.20;57.90;;;;;;5027697;28;20049;-66
2023/09/12 05:45:36;;;;;;;8.57;7.68;;;27.20;58.00;;;;;;5007411;28;20049;-69
2023/09/12 05:48:03;;;;;;;7.45;6.75;;;27.10;58.00;;;;;;5027149;28;20057;-68
2023/09/12 05:50:29;;;;;;;9.13;7.65;;;27.10;58.00;;;;;;5019608;28;20036;-66
2023/09/12 05:52:55;;;;;;;7.75;6.90;;;27.20;58.10;;;;;;5006794;28;20029;-66
2023/09/12 05:55:21;;;;;;;8.27;7.47;;;27.10;58.10;;;;;;5003595;28;20034;-66
2023/09/12 05:57:52;;;;;;;8.50;7.65;;;27.10;58.10;;;;;;5008986;28;20093;-65
2023/09/12 06:00:18;;;;;;;8.43;7.32;;;27.10;58.10;;;;;;5004449;28;20330;-67
2023/09/12 06:02:45;;;;;;;9.25;7.32;;;27.10;58.40;;;;;;5011888;28;20034;-68
2023/09/12 06:05:11;;;;;;;8.50;7.70;;;27.10;58.10;;;;;;5003614;28;20128;-66
2023/09/12 06:07:40;;;;;;;8.05;7.25;;;27.10;58.10;;;;;;5012317;28;20445;-67
2023/09/12 06:10:07;;;;;;;7.90;7.10;;;27.10;58.20;;;;;;5006584;28;20147;-65
2023/09/12 06:12:35;;;;;;;9.13;7.30;;;27.10;58.20;;;;;;5007264;28;20064;-66
2023/09/12 06:15:03;;;;;;;9.55;7.85;;;27.10;58.20;;;;;;5006889;28;20057;-67
2023/09/12 06:17:30;;;;;;;7.63;6.85;;;27.10;58.30;;;;;;5004859;28;20033;-66
2023/09/12 06:19:56;;;;;;;8.63;7.72;;;27.10;58.30;;;;;;5009823;28;20048;-67
2023/09/12 06:22:25;;;;;;;8.15;7.28;;;27.10;58.30;;;;;;5005257;28;20965;-67
2023/09/12 06:24:51;;;;;;;8.10;7.28;;;27.10;58.30;;;;;;5007689;28;20038;-68
2023/09/12 06:27:18;;;;;;;9.27;8.00;;;27.10;58.40;;;;;;5007878;28;20669;-66
2023/09/12 06:29:48;;;;;;;8.38;7.53;;;27.10;58.40;;;;;;5009171;28;20060;-67
2023/09/12 06:32:18;;;;;;;9.50;8.50;;;27.10;58.40;;;;;;5003818;28;20057;-66
2023/09/12 06:34:44;;;;;;;9.07;8.15;;;27.10;58.40;;;;;;5008257;28;20036;-65
2023/09/12 06:37:13;;;;;;;8.63;7.75;;;27.10;58.40;;;;;;5023917;28;20065;-67
2023/09/12 06:39:39;;;;;;;9.00;8.10;;;27.10;58.40;;;;;;5021957;28;20133;-67
2023/09/12 06:42:06;;;;;;;10.32;8.75;;;27.10;58.40;;;;;;5008387;28;20026;-66
2023/09/12 06:44:32;;;;;;;10.27;9.02;;;27.10;58.40;;;;;;5001664;28;20041;-69
2023/09/12 06:46:58;;;;;;;10.30;9.10;;;27.10;58.40;;;;;;5005926;28;20026;-66
2023/09/12 06:49:23;;;;;;;10.45;9.00;;;27.10;58.40;;;;;;5026004;28;20042;-66
2023/09/12 06:51:49;;;;;;;11.32;9.30;;;27.10;58.40;;;;;;4990236;28;20029;-68
2023/09/12 06:54:15;;;;;;;10.40;9.20;;;27.10;58.40;;;;;;5027548;28;20119;-66
2023/09/12 06:56:42;;;;;;;12.25;9.20;;;27.10;58.40;;;;;;5033057;28;20033;-67
2023/09/12 06:59:08;;;;;;;10.38;9.18;;;27.10;58.50;;;;;;5010078;28;21664;-66
2023/09/12 07:01:34;;;;;;;10.20;8.65;;;27.10;58.50;;;;;;5023764;28;20032;-67
2023/09/12 07:04:00;;;;;;;11.18;9.43;;;27.10;58.50;;;;;;5030918;28;20083;-66
2023/09/12 07:06:26;;;;;;;11.30;9.90;;;27.10;58.50;;;;;;5032408;28;20101;-67
2023/09/12 07:08:52;;;;;;;10.55;9.20;;;27.10;58.50;;;;;;5016852;28;20029;-65
2023/09/12 07:11:19;;;;;;;10.32;9.23;;;27.10;59.10;;;;;;5035652;28;20026;-67
2023/09/12 07:13:45;;;;;;;10.23;9.13;;;27.10;58.60;;;;;;5031193;28;20052;-66
2023/09/12 07:16:11;;;;;;;11.18;8.77;;;27.10;58.50;;;;;;5032306;28;20083;-66
2023/09/12 07:18:38;;;;;;;10.63;8.93;;;27.10;58.50;;;;;;5029701;28;20061;-66
2023/09/12 07:21:06;;;;;;;10.80;9.68;;;27.10;58.50;;;;;;5016230;28;20048;-66
2023/09/12 07:23:32;;;;;;;10.75;9.10;;;27.10;58.50;;;;;;5027999;28;20116;-66
2023/09/12 07:25:58;;;;;;;9.45;8.52;;;27.10;58.50;;;;;;5015767;28;20120;-66
2023/09/12 07:28:25;;;;;;;9.32;8.32;;;27.10;58.50;;;;;;5032666;28;20373;-66
2023/09/12 07:30:51;;;;;;;10.50;8.95;;;27.10;58.50;;;;;;5033020;28;20750;-69
2023/09/12 07:33:17;;;;;;;10.50;8.82;;;27.10;58.50;;;;;;5028151;28;20360;-66
2023/09/12 07:35:43;;;;;;;9.82;8.70;;;27.10;58.60;;;;;;5034950;28;20097;-67
2023/09/12 07:38:09;;;;;;;10.13;9.13;;;27.10;58.60;;;;;;5017643;28;20436;-67
2023/09/12 07:40:35;;;;;;;9.13;8.15;;;27.10;58.60;;;;;;5012829;28;20021;-67
2023/09/12 07:43:02;;;;;;;10.70;8.77;;;27.10;58.60;;;;;;5034103;28;20111;-67
2023/09/12 07:45:29;;;;;;;10.88;8.35;;;27.10;58.60;;;;;;5033992;28;20298;-68
2023/09/12 07:47:55;;;;;;;10.27;8.75;;;27.10;58.60;;;;;;5010708;28;20083;-67
2023/09/12 07:50:21;;;;;;;10.20;9.10;;;27.10;58.60;;;;;;5030047;28;20468;-66
2023/09/12 07:52:47;;;;;;;9.07;8.10;;;27.10;58.60;;;;;;5030834;28;20036;-67
2023/09/12 07:55:13;;;;;;;9.20;8.23;;;27.10;58.60;;;;;;5033911;28;20017;-66
2023/09/12 07:57:39;;;;;;;8.57;7.68;;;27.10;58.50;;;;;;5022079;28;20673;-66
2023/09/12 08:00:09;;;;;;;10.00;8.02;;;27.10;58.50;;;;;;5025478;28;20190;-66
2023/09/12 08:02:37;;;;;;;8.57;7.63;;;27.20;58.60;;;;;;5027043;28;20404;-70
2023/09/12 08:05:04;;;;;;;9.35;8.38;;;27.10;58.50;;;;;;5031917;28;20464;-67
2023/09/12 08:07:30;;;;;;;9.02;7.85;;;27.10;59.10;;;;;;5030336;28;20446;-66
2023/09/12 08:09:58;;;;;;;10.68;7.80;;;27.10;58.40;;;;;;5032257;28;20120;-65
2023/09/12 08:12:26;;;;;;;8.55;7.28;;;27.10;58.40;;;;;;5032892;28;20041;-66
2023/09/12 08:14:52;;;;;;;9.10;7.90;;;27.20;58.50;;;;;;5030697;28;20048;-68
2023/09/12 08:17:19;;;;;;;10.07;8.20;;;27.20;58.50;;;;;;5025165;28;20763;-66
2023/09/12 08:19:45;;;;;;;8.75;7.85;;;27.20;58.50;;;;;;5024261;28;20128;-66
2023/09/12 08:22:12;;;;;;;10.40;8.05;;;27.20;58.50;;;;;;5010090;28;20057;-66
2023/09/12 08:24:39;;;;;;;9.65;7.70;;;27.20;58.50;;;;;;5029068;28;20025;-67
2023/09/12 08:27:05;;;;;;;8.60;7.70;;;27.20;58.50;;;;;;5012389;28;20044;-67
2023/09/12 08:29:32;;;;;;;8.35;7.43;;;27.20;58.60;;;;;;5013747;28;20107;-67
2023/09/12 08:31:59;;;;;;;8.80;7.65;;;27.20;58.60;;;;;;5019795;28;20037;-68
2023/09/12 08:34:25;;;;;;;9.13;7.68;;;27.20;58.70;;;;;;5032666;28;20036;-67
2023/09/12 08:36:51;;;;;;;8.80;7.47;;;27.20;58.90;;;;;;5035742;28;20199;-68
2023/09/12 08:39:23;;;;;;;9.02;7.75;;;27.20;58.90;;;;;;5050318;28;20120;-65
2023/09/12 08:41:50;;;;;;;7.85;7.03;;;27.20;59.10;;;;;;5051173;28;20444;-65
2023/09/12 08:44:16;;;;;;;8.27;7.38;;;27.40;59.20;;;;;;5036218;28;20037;-66
2023/09/12 08:46:42;;;;;;;7.15;6.45;;;27.40;59.10;;;;;;5014250;28;20370;-69
2023/09/12 08:49:09;;;;;;;8.50;6.13;;;27.50;59.00;;;;;;5022951;28;20068;-67
2023/09/12 08:51:42;;;;;;;7.03;6.32;;;27.50;58.70;;;;;;5034527;28;20034;-65
2023/09/12 08:54:09;;;;;;;6.75;6.03;;;27.60;58.40;;;;;;5025376;28;20017;-64
2023/09/12 08:56:39;;;;;;;8.00;6.85;;;27.60;58.20;;;;;;5012901;28;20049;-64
2023/09/12 08:59:06;;;;;;;8.20;7.10;;;27.70;58.10;;;;;;5039077;28;20314;-65
2023/09/12 09:01:33;;;;;;;8.27;6.57;;;27.70;57.90;;;;;;5031218;28;20029;-64
2023/09/12 09:04:03;;;;;;;7.10;6.40;;;27.70;57.80;;;;;;5045194;28;20371;-64
2023/09/12 09:06:32;;;;;;;7.68;6.22;;;27.70;57.60;;;;;;5031752;28;20436;-65
2023/09/12 09:09:00;;;;;;;6.80;6.00;;;27.80;57.60;;;;;;5036643;28;20322;-63
2023/09/12 09:11:27;;;;;;;7.05;6.25;;;27.80;57.40;;;;;;5027064;28;20048;-66
2023/09/12 09:13:54;;;;;;;7.53;6.82;;;27.80;57.30;;;;;;5013346;28;20093;-65
2023/09/12 09:16:21;;;;;;;6.63;5.85;;;27.80;57.30;;;;;;5014702;28;20040;-64
2023/09/12 09:19:00;;;;;;;7.40;5.90;;;27.80;57.20;;;;;;5028863;28;20108;-65
2023/09/12 09:21:31;;;;;;;7.10;6.15;;;27.80;57.20;;;;;;5030932;28;20345;-67
2023/09/12 09:23:59;;;;;;;7.05;6.35;;;27.80;57.20;;;;;;5032277;28;20101;-68
2023/09/12 09:26:39;;;;;;;6.97;6.28;;;27.80;57.20;;;;;;5018555;28;20037;-67
2023/09/12 09:29:19;;;;;;;6.57;5.88;;;27.80;57.20;;;;;;5030696;28;20029;-67
2023/09/12 09:31:47;;;;;;;6.82;5.88;;;27.80;57.20;;;;;;5015521;28;20043;-67
2023/09/12 09:34:14;;;;;;;6.55;5.85;;;27.80;57.20;;;;;;5036833;28;20068;-65
2023/09/12 09:36:42;;;;;;;6.60;5.75;;;27.80;57.20;;;;;;5048513;28;20112;-64
2023/09/12 09:39:09;;;;;;;8.25;6.18;;;27.80;57.20;;;;;;5053275;28;20056;-65
2023/09/12 09:41:36;;;;;;;6.60;5.55;;;27.80;57.20;;;;;;5032965;28;20093;-67
2023/09/12 09:44:04;;;;;;;6.78;6.07;;;27.80;57.20;;;;;;5034965;28;20069;-65
2023/09/12 09:46:30;;;;;;;6.53;5.90;;;27.80;57.20;;;;;;5050416;28;20029;-64
2023/09/12 09:48:56;;;;;;;5.82;5.28;;;27.80;57.20;;;;;;5025633;28;20046;-66
2023/09/12 09:51:21;;;;;;;6.03;5.25;;;27.80;57.10;;;;;;5010072;28;20369;-65
2023/09/12 09:53:51;;;;;;;5.97;5.32;;;27.80;57.10;;;;;;5027164;28;20069;-64
2023/09/12 09:56:18;;;;;;;5.50;4.97;;;27.80;57.00;;;;;;5028096;28;20034;-66
2023/09/12 09:58:56;;;;;;;5.95;5.28;;;27.80;57.00;;;;;;5026733;28;20029;-66
2023/09/12 10:01:28;;;;;;;6.30;4.90;;;27.80;57.00;;;;;;5009669;28;20025;-66
2023/09/12 10:04:00;;;;;;;5.68;5.10;;;27.80;57.00;;;;;;5008652;28;20057;-65
2023/09/12 10:06:27;;;;;;;5.68;5.00;;;27.80;56.90;;;;;;5011688;28;20105;-66
2023/09/12 10:08:54;;;;;;;5.30;4.65;;;27.80;56.90;;;;;;5010060;28;20034;-65
2023/09/12 10:11:23;;;;;;;5.55;5.05;;;27.80;56.90;;;;;;5012023;28;20143;-65
2023/09/12 10:13:57;;;;;;;5.13;4.63;;;27.80;56.90;;;;;;5018293;28;20835;-65
2023/09/12 10:16:27;;;;;;;5.20;4.70;;;27.80;56.80;;;;;;5010046;28;20022;-67
2023/09/12 10:19:15;;;;;;;5.90;5.30;;;27.80;56.80;;;;;;5001160;28;20129;-64
2023/09/12 10:21:50;;;;;;;4.90;4.25;;;27.90;56.70;;;;;;5007256;28;20404;-67
2023/09/12 10:24:16;;;;;;;6.07;4.38;;;27.80;56.60;;;;;;5024385;28;20045;-67
2023/09/12 10:26:46;;;;;;;4.72;4.32;;;27.80;56.60;;;;;;5002369;28;20129;-67
2023/09/12 10:29:16;;;;;;;4.95;4.45;;;27.90;56.60;;;;;;5020129;28;20047;-66
2023/09/12 10:31:43;;;;;;;4.75;4.10;;;27.90;56.60;;;;;;5013943;28;20022;-66
2023/09/12 10:34:12;;;;;;;6.00;4.18;;;27.90;56.50;;;;;;5009496;28;20193;-67
2023/09/12 10:36:43;;;;;;;5.05;4.28;;;27.80;56.50;;;;;;5006882;28;20037;-68
2023/09/12 10:39:11;;;;;;;4.63;4.13;;;27.90;56.60;;;;;;5014967;28;20042;-67
2023/09/12 10:41:38;;;;;;;4.57;3.63;;;27.90;56.60;;;;;;5003083;28;20045;-69
2023/09/12 10:44:15;;;;;;;5.88;4.43;;;27.90;56.60;;;;;;5001663;28;20365;-65
2023/09/12 10:46:43;;;;;;;4.47;4.00;;;27.90;56.60;;;;;;5003139;28;20108;-67
2023/09/12 10:49:11;;;;;;;5.15;3.95;;;27.90;56.60;;;;;;5026852;28;20436;-64
2023/09/12 10:51:42;;;;;;;4.88;3.80;;;27.90;56.60;;;;;;5013571;28;20452;-68
2023/09/12 10:54:13;;;;;;;5.28;3.90;;;27.90;56.60;;;;;;5025816;28;20037;-66
2023/09/12 10:56:39;;;;;;;4.20;3.80;;;27.90;56.60;;;;;;5020717;28;20029;-67
2023/09/12 10:59:09;;;;;;;4.30;3.75;;;27.90;56.60;;;;;;5023404;28;20391;-66
2023/09/12 11:01:36;;;;;;;5.18;4.35;;;27.90;56.50;;;;;;5013031;28;20048;-69
2023/09/12 11:04:20;;;;;;;4.00;3.47;;;27.90;56.60;;;;;;5037141;28;20036;-67
2023/09/12 11:06:49;;;;;;;4.45;4.00;;;27.90;56.60;;;;;;5036673;28;20553;-67
2023/09/12 11:09:19;;;;;;;5.25;3.97;;;27.90;56.50;;;;;;5009310;28;20029;-66
2023/09/12 11:11:58;;;;;;;3.90;3.15;;;28.00;56.60;;;;;;5007582;28;20044;-67
2023/09/12 11:14:26;;;;;;;4.57;4.10;;;28.00;56.70;;;;;;5027576;28;20440;-67
2023/09/12 11:17:10;;;;;;;4.22;3.70;;;28.00;56.80;;;;;;5037493;28;20029;-67
2023/09/12 11:19:45;;;;;;;4.78;3.28;;;28.00;56.90;;;;;;5019387;28;20083;-65
2023/09/12 11:22:34;;;;;;;4.60;3.50;;;28.10;56.90;;;;;;5034037;28;20123;-65
2023/09/12 11:25:26;;;;;;;4.13;3.35;;;28.20;56.80;;;;;;5042376;28;20128;-67
2023/09/12 11:27:53;;;;;;;3.33;3.03;;;28.30;56.80;;;;;;5033844;28;20113;-66
2023/09/12 11:30:20;;;;;;;3.22;2.88;;;28.30;56.70;;;;;;5034938;28;20033;-66
2023/09/12 11:32:50;;;;;;;3.75;2.95;;;28.40;56.60;;;;;;5004015;28;20044;-68
2023/09/12 11:35:22;;;;;;;3.05;2.58;;;28.50;56.50;;;;;;5012410;28;20030;-69
2023/09/12 11:37:49;;;;;;;4.07;3.10;;;28.60;56.40;;;;;;5020827;28;20052;-68
2023/09/12 11:40:22;;;;;;;5.05;2.95;;;28.70;56.20;;;;;;5031710;28;20053;-66
2023/09/12 11:42:49;;;;;;;4.07;3.30;;;28.90;56.10;;;;;;5031021;28;20102;-65
2023/09/12 11:45:19;;;;;;;3.50;3.10;;;28.90;55.80;;;;;;5031172;28;20026;-67
2023/09/12 11:47:46;;;;;;;3.42;2.70;;;29.00;55.50;;;;;;5022668;28;20037;-67
2023/09/12 11:50:28;;;;;;;3.42;2.60;;;29.20;55.30;;;;;;5015812;28;20025;-64
2023/09/12 11:53:07;;;;;;;2.72;2.38;;;29.30;55.00;;;;;;5034903;28;20378;-66
2023/09/12 11:55:38;;;;;;;2.35;2.15;;;29.30;54.80;;;;;;5035316;28;20022;-66
2023/09/12 11:58:07;;;;;;;4.05;2.90;;;29.40;54.70;;;;;;5032474;28;20187;-67
2023/09/12 12:00:33;;;;;;;3.22;2.78;;;29.50;54.60;;;;;;5032586;28;20037;-66
2023/09/12 12:02:59;;;;;;;3.10;2.70;;;29.60;54.60;;;;;;5026770;28;20140;-66
2023/09/12 12:05:26;;;;;;;2.63;2.42;;;29.60;54.40;;;;;;5034910;28;20496;-67
2023/09/12 12:07:52;;;;;;;2.97;2.63;;;29.70;54.30;;;;;;5018503;28;20423;-65
2023/09/12 12:10:18;;;;;;;3.88;2.80;;;29.70;54.20;;;;;;5016463;28;20144;-65
2023/09/12 12:12:46;;;;;;;2.72;2.50;;;29.80;54.00;;;;;;5047294;28;20036;-66
2023/09/12 12:15:13;;;;;;;4.40;2.10;;;29.80;53.80;;;;;;5036926;28;20402;-67
2023/09/12 12:17:42;;;;;;;2.72;2.30;;;29.90;53.70;;;;;;5041824;28;20021;-67
2023/09/12 12:20:11;;;;;;;2.15;1.95;;;29.90;53.50;;;;;;5027438;28;20040;-67
2023/09/12 12:22:40;;;;;;;1.98;1.80;;;30.00;53.30;;;;;;5015145;28;20036;-67
2023/09/12 12:25:08;;;;;;;2.30;1.98;;;30.00;53.10;;;;;;5023352;28;20079;-67
2023/09/12 12:27:41;;;;;;;4.30;1.90;;;30.10;53.10;;;;;;5016719;28;20337;-68
2023/09/12 12:30:10;;;;;;;2.55;1.80;;;30.10;53.00;;;;;;5041871;28;20033;-70
2023/09/12 12:32:41;;;;;;;1.90;1.58;;;30.10;52.90;;;;;;5034319;28;20192;-68
2023/09/12 12:35:07;;;;;;;2.83;2.08;;;30.20;52.80;;;;;;5032903;28;20030;-66
2023/09/12 12:37:34;;;;;;;2.97;2.15;;;30.20;52.60;;;;;;5015386;28;20075;-65
2023/09/12 12:40:01;;;;;;;4.38;1.80;;;30.20;52.50;;;;;;5029211;28;20041;-67
2023/09/12 12:42:38;;;;;;;2.45;1.80;;;30.20;52.40;;;;;;5048495;28;20029;-66
2023/09/12 12:45:15;;;;;;;1.73;1.50;;;30.20;52.20;;;;;;5032229;28;20093;-67
2023/09/12 12:47:41;;;;;;;1.60;1.50;;;30.20;51.90;;;;;;5053919;28;20053;-67
2023/09/12 12:50:10;;;;;;;2.90;1.88;;;30.20;52.10;;;;;;5036026;28;20029;-65